sensor_id;sensor_type;location;lat;lon;timestamp;P1;durP1;ratioP1;P2;durP2;ratioP2
59418;SDS011;45224;50.904;6.038;2023-05-07T00:00:12;6.87;;;4.93;;
59418;SDS011;45224;50.904;6.038;2023-05-07T00:01:45;6.72;;;4.43;;
59418;SDS011;45224;50.904;6.038;2023-05-07T00:03:16;10.93;;;5.63;;
59418;SDS011;45224;50.904;6.038;2023-05-07T00:04:46;6.03;;;4.32;;
59418;SDS011;45224;50.904;6.038;2023-05-07T00:06:17;7.07;;;4.20;;
59418;SDS011;45224;50.904;6.038;2023-05-07T00:07:47;7.67;;;4.83;;
59418;SDS011;45224;50.904;6.038;2023-05-07T00:09:18;7.27;;;5.30;;
59418;SDS011;45224;50.904;6.038;2023-05-07T00:10:48;6.23;;;5.10;;
59418;SDS011;45224;50.904;6.038;2023-05-07T00:12:19;7.82;;;4.93;;
59418;SDS011;45224;50.904;6.038;2023-05-07T00:13:49;10.03;;;5.20;;
59418;SDS011;45224;50.904;6.038;2023-05-07T00:15:19;7.70;;;4.90;;
59418;SDS011;45224;50.904;6.038;2023-05-07T00:16:50;5.63;;;4.83;;
59418;SDS011;45224;50.904;6.038;2023-05-07T00:18:20;7.73;;;4.97;;
59418;SDS011;45224;50.904;6.038;2023-05-07T00:19:52;8.70;;;5.30;;
59418;SDS011;45224;50.904;6.038;2023-05-07T00:21:23;7.97;;;4.97;;
59418;SDS011;45224;50.904;6.038;2023-05-07T00:22:56;8.80;;;4.95;;
59418;SDS011;45224;50.904;6.038;2023-05-07T00:24:27;7.18;;;4.80;;
59418;SDS011;45224;50.904;6.038;2023-05-07T00:25:57;6.33;;;4.90;;
59418;SDS011;45224;50.904;6.038;2023-05-07T00:27:27;6.47;;;4.80;;
59418;SDS011;45224;50.904;6.038;2023-05-07T00:28:58;8.47;;;4.83;;
59418;SDS011;45224;50.904;6.038;2023-05-07T00:30:28;5.97;;;4.43;;
59418;SDS011;45224;50.904;6.038;2023-05-07T00:31:59;7.68;;;4.55;;
59418;SDS011;45224;50.904;6.038;2023-05-07T00:33:30;6.57;;;4.67;;
59418;SDS011;45224;50.904;6.038;2023-05-07T00:35:00;5.60;;;4.40;;
59418;SDS011;45224;50.904;6.038;2023-05-07T00:36:31;6.43;;;4.47;;
59418;SDS011;45224;50.904;6.038;2023-05-07T00:38:01;7.68;;;4.65;;
59418;SDS011;45224;50.904;6.038;2023-05-07T00:39:32;6.63;;;4.50;;
59418;SDS011;45224;50.904;6.038;2023-05-07T00:41:02;7.15;;;5.00;;
59418;SDS011;45224;50.904;6.038;2023-05-07T00:42:33;8.35;;;5.00;;
59418;SDS011;45224;50.904;6.038;2023-05-07T00:44:04;8.27;;;4.80;;
59418;SDS011;45224;50.904;6.038;2023-05-07T00:45:34;8.70;;;5.72;;
59418;SDS011;45224;50.904;6.038;2023-05-07T00:47:05;8.77;;;4.80;;
59418;SDS011;45224;50.904;6.038;2023-05-07T00:48:36;8.20;;;4.85;;
59418;SDS011;45224;50.904;6.038;2023-05-07T00:50:06;7.47;;;5.00;;
59418;SDS011;45224;50.904;6.038;2023-05-07T00:51:38;10.60;;;4.70;;
59418;SDS011;45224;50.904;6.038;2023-05-07T00:53:08;6.07;;;4.60;;
59418;SDS011;45224;50.904;6.038;2023-05-07T00:54:40;9.18;;;4.82;;
59418;SDS011;45224;50.904;6.038;2023-05-07T00:56:11;8.38;;;4.97;;
59418;SDS011;45224;50.904;6.038;2023-05-07T00:57:42;9.32;;;4.70;;
59418;SDS011;45224;50.904;6.038;2023-05-07T00:59:12;8.75;;;4.97;;
59418;SDS011;45224;50.904;6.038;2023-05-07T01:00:43;7.10;;;4.60;;
59418;SDS011;45224;50.904;6.038;2023-05-07T01:02:13;5.40;;;4.30;;
59418;SDS011;45224;50.904;6.038;2023-05-07T01:03:44;6.40;;;4.37;;
59418;SDS011;45224;50.904;6.038;2023-05-07T01:05:15;7.65;;;4.60;;
59418;SDS011;45224;50.904;6.038;2023-05-07T01:06:49;8.25;;;4.50;;
59418;SDS011;45224;50.904;6.038;2023-05-07T01:08:20;14.88;;;5.07;;
59418;SDS011;45224;50.904;6.038;2023-05-07T01:09:52;9.68;;;4.68;;
59418;SDS011;45224;50.904;6.038;2023-05-07T01:11:23;8.48;;;4.90;;
59418;SDS011;45224;50.904;6.038;2023-05-07T01:12:55;7.78;;;5.10;;
59418;SDS011;45224;50.904;6.038;2023-05-07T01:14:28;9.38;;;5.40;;
59418;SDS011;45224;50.904;6.038;2023-05-07T01:17:33;9.53;;;5.13;;
59418;SDS011;45224;50.904;6.038;2023-05-07T01:19:05;6.10;;;4.65;;
59418;SDS011;45224;50.904;6.038;2023-05-07T01:20:36;7.40;;;4.55;;
59418;SDS011;45224;50.904;6.038;2023-05-07T01:22:10;8.00;;;5.00;;
59418;SDS011;45224;50.904;6.038;2023-05-07T01:23:53;8.70;;;4.95;;
59418;SDS011;45224;50.904;6.038;2023-05-07T01:25:24;7.38;;;4.78;;
59418;SDS011;45224;50.904;6.038;2023-05-07T01:26:58;9.48;;;5.50;;
59418;SDS011;45224;50.904;6.038;2023-05-07T01:28:29;9.27;;;5.25;;
59418;SDS011;45224;50.904;6.038;2023-05-07T01:30:05;8.85;;;5.20;;
59418;SDS011;45224;50.904;6.038;2023-05-07T01:31:36;7.78;;;5.03;;
59418;SDS011;45224;50.904;6.038;2023-05-07T01:34:40;7.75;;;4.90;;
59418;SDS011;45224;50.904;6.038;2023-05-07T01:36:13;9.63;;;4.78;;
59418;SDS011;45224;50.904;6.038;2023-05-07T01:37:44;8.30;;;5.32;;
59418;SDS011;45224;50.904;6.038;2023-05-07T01:39:17;11.48;;;5.60;;
59418;SDS011;45224;50.904;6.038;2023-05-07T01:40:48;7.38;;;5.05;;
59418;SDS011;45224;50.904;6.038;2023-05-07T01:42:19;7.68;;;5.07;;
59418;SDS011;45224;50.904;6.038;2023-05-07T01:43:50;11.93;;;6.00;;
59418;SDS011;45224;50.904;6.038;2023-05-07T01:45:22;10.65;;;5.43;;
59418;SDS011;45224;50.904;6.038;2023-05-07T01:46:53;9.43;;;5.97;;
59418;SDS011;45224;50.904;6.038;2023-05-07T01:48:25;10.27;;;5.35;;
59418;SDS011;45224;50.904;6.038;2023-05-07T01:49:56;10.27;;;5.60;;
59418;SDS011;45224;50.904;6.038;2023-05-07T01:52:57;8.53;;;5.47;;
59418;SDS011;45224;50.904;6.038;2023-05-07T01:54:28;10.73;;;5.33;;
59418;SDS011;45224;50.904;6.038;2023-05-07T01:56:00;8.88;;;5.00;;
59418;SDS011;45224;50.904;6.038;2023-05-07T01:57:31;9.07;;;5.80;;
59418;SDS011;45224;50.904;6.038;2023-05-07T01:59:01;8.45;;;5.25;;
59418;SDS011;45224;50.904;6.038;2023-05-07T02:00:32;10.52;;;5.25;;
59418;SDS011;45224;50.904;6.038;2023-05-07T02:02:03;8.93;;;5.43;;
59418;SDS011;45224;50.904;6.038;2023-05-07T02:03:34;10.10;;;5.20;;
59418;SDS011;45224;50.904;6.038;2023-05-07T02:05:14;8.05;;;5.10;;
59418;SDS011;45224;50.904;6.038;2023-05-07T02:06:45;11.07;;;5.43;;
59418;SDS011;45224;50.904;6.038;2023-05-07T02:08:17;9.77;;;5.20;;
59418;SDS011;45224;50.904;6.038;2023-05-07T02:09:47;9.63;;;5.93;;
59418;SDS011;45224;50.904;6.038;2023-05-07T02:11:18;7.38;;;5.35;;
59418;SDS011;45224;50.904;6.038;2023-05-07T02:12:49;11.43;;;6.20;;
59418;SDS011;45224;50.904;6.038;2023-05-07T02:14:19;11.90;;;5.90;;
59418;SDS011;45224;50.904;6.038;2023-05-07T02:15:50;11.23;;;5.50;;
59418;SDS011;45224;50.904;6.038;2023-05-07T02:17:21;8.63;;;5.35;;
59418;SDS011;45224;50.904;6.038;2023-05-07T02:18:52;10.07;;;5.43;;
59418;SDS011;45224;50.904;6.038;2023-05-07T02:20:22;8.43;;;5.63;;
59418;SDS011;45224;50.904;6.038;2023-05-07T02:21:53;11.70;;;5.83;;
59418;SDS011;45224;50.904;6.038;2023-05-07T02:23:24;8.95;;;5.78;;
59418;SDS011;45224;50.904;6.038;2023-05-07T02:24:55;12.25;;;5.38;;
59418;SDS011;45224;50.904;6.038;2023-05-07T02:26:25;7.82;;;5.60;;
59418;SDS011;45224;50.904;6.038;2023-05-07T02:27:56;9.95;;;5.72;;
59418;SDS011;45224;50.904;6.038;2023-05-07T02:29:35;7.65;;;5.10;;
59418;SDS011;45224;50.904;6.038;2023-05-07T02:31:06;9.67;;;5.33;;
59418;SDS011;45224;50.904;6.038;2023-05-07T02:32:37;10.27;;;5.82;;
59418;SDS011;45224;50.904;6.038;2023-05-07T02:34:07;9.83;;;5.50;;
59418;SDS011;45224;50.904;6.038;2023-05-07T02:35:38;9.63;;;5.50;;
59418;SDS011;45224;50.904;6.038;2023-05-07T02:37:08;9.20;;;5.80;;
59418;SDS011;45224;50.904;6.038;2023-05-07T02:38:39;10.23;;;5.82;;
59418;SDS011;45224;50.904;6.038;2023-05-07T02:40:10;8.80;;;6.03;;
59418;SDS011;45224;50.904;6.038;2023-05-07T02:41:41;10.95;;;5.75;;
59418;SDS011;45224;50.904;6.038;2023-05-07T02:43:12;10.37;;;6.20;;
59418;SDS011;45224;50.904;6.038;2023-05-07T02:44:46;11.52;;;6.18;;
59418;SDS011;45224;50.904;6.038;2023-05-07T02:46:16;9.02;;;5.78;;
59418;SDS011;45224;50.904;6.038;2023-05-07T02:47:51;9.02;;;5.60;;
59418;SDS011;45224;50.904;6.038;2023-05-07T02:49:22;10.03;;;5.87;;
59418;SDS011;45224;50.904;6.038;2023-05-07T02:50:52;10.50;;;5.80;;
59418;SDS011;45224;50.904;6.038;2023-05-07T02:52:23;9.20;;;6.10;;
59418;SDS011;45224;50.904;6.038;2023-05-07T02:53:53;8.63;;;5.50;;
59418;SDS011;45224;50.904;6.038;2023-05-07T02:55:25;10.52;;;6.05;;
59418;SDS011;45224;50.904;6.038;2023-05-07T02:56:56;11.17;;;6.20;;
59418;SDS011;45224;50.904;6.038;2023-05-07T02:58:26;10.87;;;6.40;;
59418;SDS011;45224;50.904;6.038;2023-05-07T02:59:57;10.00;;;6.03;;
59418;SDS011;45224;50.904;6.038;2023-05-07T03:01:28;11.73;;;6.22;;
59418;SDS011;45224;50.904;6.038;2023-05-07T03:03:06;10.30;;;5.50;;
59418;SDS011;45224;50.904;6.038;2023-05-07T03:04:36;8.85;;;5.53;;
59418;SDS011;45224;50.904;6.038;2023-05-07T03:06:07;10.77;;;6.37;;
59418;SDS011;45224;50.904;6.038;2023-05-07T03:07:37;8.52;;;5.72;;
59418;SDS011;45224;50.904;6.038;2023-05-07T03:09:08;9.93;;;5.72;;
59418;SDS011;45224;50.904;6.038;2023-05-07T03:12:10;8.23;;;5.53;;
59418;SDS011;45224;50.904;6.038;2023-05-07T03:13:40;9.97;;;5.30;;
59418;SDS011;45224;50.904;6.038;2023-05-07T03:15:11;7.13;;;4.78;;
59418;SDS011;45224;50.904;6.038;2023-05-07T03:18:13;9.80;;;5.63;;
59418;SDS011;45224;50.904;6.038;2023-05-07T03:19:43;7.73;;;5.27;;
59418;SDS011;45224;50.904;6.038;2023-05-07T03:21:14;9.57;;;5.23;;
59418;SDS011;45224;50.904;6.038;2023-05-07T03:22:45;7.95;;;5.03;;
59418;SDS011;45224;50.904;6.038;2023-05-07T03:24:15;11.27;;;4.88;;
59418;SDS011;45224;50.904;6.038;2023-05-07T03:25:46;9.23;;;5.67;;
59418;SDS011;45224;50.904;6.038;2023-05-07T03:27:16;10.03;;;5.37;;
59418;SDS011;45224;50.904;6.038;2023-05-07T03:28:47;7.15;;;5.28;;
59418;SDS011;45224;50.904;6.038;2023-05-07T03:30:20;7.88;;;5.05;;
59418;SDS011;45224;50.904;6.038;2023-05-07T03:31:51;9.77;;;5.33;;
59418;SDS011;45224;50.904;6.038;2023-05-07T03:33:21;11.03;;;4.83;;
59418;SDS011;45224;50.904;6.038;2023-05-07T03:34:52;10.55;;;4.88;;
59418;SDS011;45224;50.904;6.038;2023-05-07T03:36:23;6.37;;;4.63;;
59418;SDS011;45224;50.904;6.038;2023-05-07T03:37:56;10.90;;;5.35;;
59418;SDS011;45224;50.904;6.038;2023-05-07T03:39:27;8.40;;;5.30;;
59418;SDS011;45224;50.904;6.038;2023-05-07T03:40:58;10.23;;;5.00;;
59418;SDS011;45224;50.904;6.038;2023-05-07T03:42:29;9.18;;;4.63;;
59418;SDS011;45224;50.904;6.038;2023-05-07T03:43:59;9.18;;;5.28;;
59418;SDS011;45224;50.904;6.038;2023-05-07T03:45:30;8.18;;;4.68;;
59418;SDS011;45224;50.904;6.038;2023-05-07T03:47:10;10.73;;;5.53;;
59418;SDS011;45224;50.904;6.038;2023-05-07T03:48:41;7.50;;;5.17;;
59418;SDS011;45224;50.904;6.038;2023-05-07T03:50:11;10.03;;;5.13;;
59418;SDS011;45224;50.904;6.038;2023-05-07T03:51:42;7.97;;;4.70;;
59418;SDS011;45224;50.904;6.038;2023-05-07T03:53:13;8.40;;;4.95;;
59418;SDS011;45224;50.904;6.038;2023-05-07T03:54:43;9.43;;;5.03;;
59418;SDS011;45224;50.904;6.038;2023-05-07T03:56:16;6.55;;;4.50;;
59418;SDS011;45224;50.904;6.038;2023-05-07T03:57:46;8.20;;;4.60;;
59418;SDS011;45224;50.904;6.038;2023-05-07T03:59:17;8.73;;;4.70;;
59418;SDS011;45224;50.904;6.038;2023-05-07T04:00:49;7.70;;;4.60;;
59418;SDS011;45224;50.904;6.038;2023-05-07T04:02:28;7.38;;;4.40;;
59418;SDS011;45224;50.904;6.038;2023-05-07T04:03:59;7.33;;;4.07;;
59418;SDS011;45224;50.904;6.038;2023-05-07T04:05:29;9.77;;;4.70;;
59418;SDS011;45224;50.904;6.038;2023-05-07T04:07:04;8.27;;;4.63;;
59418;SDS011;45224;50.904;6.038;2023-05-07T04:08:40;6.22;;;4.30;;
59418;SDS011;45224;50.904;6.038;2023-05-07T04:10:11;6.40;;;4.72;;
59418;SDS011;45224;50.904;6.038;2023-05-07T04:11:45;7.13;;;4.55;;
59418;SDS011;45224;50.904;6.038;2023-05-07T04:13:15;11.17;;;4.27;;
59418;SDS011;45224;50.904;6.038;2023-05-07T04:14:47;15.98;;;5.82;;
59418;SDS011;45224;50.904;6.038;2023-05-07T04:16:17;21.17;;;6.95;;
59418;SDS011;45224;50.904;6.038;2023-05-07T04:17:48;21.27;;;7.40;;
59418;SDS011;45224;50.904;6.038;2023-05-07T04:19:22;32.25;;;9.15;;
59418;SDS011;45224;50.904;6.038;2023-05-07T04:20:56;38.13;;;11.32;;
59418;SDS011;45224;50.904;6.038;2023-05-07T04:22:27;35.73;;;11.07;;
59418;SDS011;45224;50.904;6.038;2023-05-07T04:23:58;35.15;;;10.55;;
59418;SDS011;45224;50.904;6.038;2023-05-07T04:25:28;28.40;;;9.97;;
59418;SDS011;45224;50.904;6.038;2023-05-07T04:27:05;31.92;;;10.27;;
59418;SDS011;45224;50.904;6.038;2023-05-07T04:28:38;27.00;;;8.93;;
59418;SDS011;45224;50.904;6.038;2023-05-07T04:30:10;27.98;;;9.25;;
59418;SDS011;45224;50.904;6.038;2023-05-07T04:31:43;28.48;;;9.77;;
59418;SDS011;45224;50.904;6.038;2023-05-07T04:33:16;25.70;;;9.35;;
59418;SDS011;45224;50.904;6.038;2023-05-07T04:34:48;28.15;;;8.98;;
59418;SDS011;45224;50.904;6.038;2023-05-07T04:36:19;25.00;;;9.13;;
59418;SDS011;45224;50.904;6.038;2023-05-07T04:37:58;26.05;;;9.68;;
59418;SDS011;45224;50.904;6.038;2023-05-07T04:39:28;27.23;;;9.20;;
59418;SDS011;45224;50.904;6.038;2023-05-07T04:41:03;34.38;;;10.48;;
59418;SDS011;45224;50.904;6.038;2023-05-07T04:42:36;35.28;;;11.05;;
59418;SDS011;45224;50.904;6.038;2023-05-07T04:44:07;29.88;;;9.98;;
59418;SDS011;45224;50.904;6.038;2023-05-07T04:45:39;31.80;;;9.40;;
59418;SDS011;45224;50.904;6.038;2023-05-07T04:47:11;30.23;;;9.80;;
59418;SDS011;45224;50.904;6.038;2023-05-07T04:48:43;27.98;;;11.10;;
59418;SDS011;45224;50.904;6.038;2023-05-07T04:50:14;30.95;;;9.52;;
59418;SDS011;45224;50.904;6.038;2023-05-07T04:51:46;24.77;;;8.90;;
59418;SDS011;45224;50.904;6.038;2023-05-07T04:53:20;22.30;;;8.65;;
59418;SDS011;45224;50.904;6.038;2023-05-07T04:54:52;31.45;;;10.43;;
59418;SDS011;45224;50.904;6.038;2023-05-07T04:56:23;23.13;;;8.05;;
59418;SDS011;45224;50.904;6.038;2023-05-07T04:57:54;17.98;;;8.27;;
59418;SDS011;45224;50.904;6.038;2023-05-07T04:59:25;23.77;;;8.95;;
59418;SDS011;45224;50.904;6.038;2023-05-07T05:00:56;18.53;;;7.80;;
59418;SDS011;45224;50.904;6.038;2023-05-07T05:02:27;20.58;;;7.95;;
59418;SDS011;45224;50.904;6.038;2023-05-07T05:03:58;18.27;;;7.65;;
59418;SDS011;45224;50.904;6.038;2023-05-07T05:05:30;14.80;;;7.18;;
59418;SDS011;45224;50.904;6.038;2023-05-07T05:08:34;14.95;;;6.50;;
59418;SDS011;45224;50.904;6.038;2023-05-07T05:10:06;13.73;;;6.63;;
59418;SDS011;45224;50.904;6.038;2023-05-07T05:11:40;16.08;;;6.90;;
59418;SDS011;45224;50.904;6.038;2023-05-07T05:13:10;14.40;;;6.80;;
59418;SDS011;45224;50.904;6.038;2023-05-07T05:14:43;14.05;;;6.47;;
59418;SDS011;45224;50.904;6.038;2023-05-07T05:16:13;17.63;;;6.77;;
59418;SDS011;45224;50.904;6.038;2023-05-07T05:17:44;19.48;;;6.95;;
59418;SDS011;45224;50.904;6.038;2023-05-07T05:19:15;14.07;;;6.30;;
59418;SDS011;45224;50.904;6.038;2023-05-07T05:20:48;15.57;;;5.93;;
59418;SDS011;45224;50.904;6.038;2023-05-07T05:22:19;13.88;;;6.28;;
59418;SDS011;45224;50.904;6.038;2023-05-07T05:23:49;19.80;;;6.03;;
59418;SDS011;45224;50.904;6.038;2023-05-07T05:25:24;9.85;;;5.85;;
59418;SDS011;45224;50.904;6.038;2023-05-07T05:26:55;13.30;;;6.47;;
59418;SDS011;45224;50.904;6.038;2023-05-07T05:28:26;14.27;;;5.93;;
59418;SDS011;45224;50.904;6.038;2023-05-07T05:29:58;10.18;;;6.00;;
59418;SDS011;45224;50.904;6.038;2023-05-07T05:31:29;12.17;;;6.03;;
59418;SDS011;45224;50.904;6.038;2023-05-07T05:34:32;14.13;;;5.38;;
59418;SDS011;45224;50.904;6.038;2023-05-07T05:36:04;12.55;;;6.15;;
59418;SDS011;45224;50.904;6.038;2023-05-07T05:37:35;16.27;;;6.13;;
59418;SDS011;45224;50.904;6.038;2023-05-07T05:39:07;10.75;;;5.90;;
59418;SDS011;45224;50.904;6.038;2023-05-07T05:40:38;15.18;;;5.72;;
59418;SDS011;45224;50.904;6.038;2023-05-07T05:42:09;12.20;;;5.95;;
59418;SDS011;45224;50.904;6.038;2023-05-07T05:43:40;11.55;;;6.50;;
59418;SDS011;45224;50.904;6.038;2023-05-07T05:45:10;12.50;;;6.80;;
59418;SDS011;45224;50.904;6.038;2023-05-07T05:46:42;7.90;;;5.60;;
59418;SDS011;45224;50.904;6.038;2023-05-07T05:48:12;13.67;;;6.37;;
59418;SDS011;45224;50.904;6.038;2023-05-07T05:49:43;11.97;;;5.80;;
59418;SDS011;45224;50.904;6.038;2023-05-07T05:51:15;14.80;;;6.50;;
59418;SDS011;45224;50.904;6.038;2023-05-07T05:52:45;11.63;;;6.50;;
59418;SDS011;45224;50.904;6.038;2023-05-07T05:54:16;12.27;;;6.30;;
59418;SDS011;45224;50.904;6.038;2023-05-07T05:55:46;15.50;;;6.57;;
59418;SDS011;45224;50.904;6.038;2023-05-07T05:57:17;12.43;;;5.60;;
59418;SDS011;45224;50.904;6.038;2023-05-07T05:58:49;12.10;;;5.65;;
59418;SDS011;45224;50.904;6.038;2023-05-07T06:00:19;11.07;;;5.55;;
59418;SDS011;45224;50.904;6.038;2023-05-07T06:02:00;10.88;;;5.03;;
59418;SDS011;45224;50.904;6.038;2023-05-07T06:03:31;14.07;;;6.15;;
59418;SDS011;45224;50.904;6.038;2023-05-07T06:05:05;8.60;;;4.97;;
59418;SDS011;45224;50.904;6.038;2023-05-07T06:06:36;13.85;;;5.82;;
59418;SDS011;45224;50.904;6.038;2023-05-07T06:08:07;8.65;;;5.03;;
59418;SDS011;45224;50.904;6.038;2023-05-07T06:09:39;10.15;;;5.00;;
59418;SDS011;45224;50.904;6.038;2023-05-07T06:11:09;7.40;;;4.55;;
59418;SDS011;45224;50.904;6.038;2023-05-07T06:12:43;9.93;;;5.30;;
59418;SDS011;45224;50.904;6.038;2023-05-07T06:14:14;10.10;;;5.43;;
59418;SDS011;45224;50.904;6.038;2023-05-07T06:15:44;10.02;;;5.53;;
59418;SDS011;45224;50.904;6.038;2023-05-07T06:17:17;8.10;;;4.53;;
59418;SDS011;45224;50.904;6.038;2023-05-07T06:18:47;9.55;;;4.68;;
59418;SDS011;45224;50.904;6.038;2023-05-07T06:20:19;9.77;;;5.60;;
59418;SDS011;45224;50.904;6.038;2023-05-07T06:21:50;6.63;;;4.53;;
59418;SDS011;45224;50.904;6.038;2023-05-07T06:23:20;9.50;;;5.00;;
59418;SDS011;45224;50.904;6.038;2023-05-07T06:24:51;9.00;;;5.27;;
59418;SDS011;45224;50.904;6.038;2023-05-07T06:26:21;8.98;;;5.25;;
59418;SDS011;45224;50.904;6.038;2023-05-07T06:27:52;7.60;;;4.82;;
59418;SDS011;45224;50.904;6.038;2023-05-07T06:29:22;8.43;;;4.43;;
59418;SDS011;45224;50.904;6.038;2023-05-07T06:30:53;8.18;;;4.47;;
59418;SDS011;45224;50.904;6.038;2023-05-07T06:32:23;8.07;;;4.60;;
59418;SDS011;45224;50.904;6.038;2023-05-07T06:33:55;9.93;;;5.03;;
59418;SDS011;45224;50.904;6.038;2023-05-07T06:35:29;7.35;;;5.03;;
59418;SDS011;45224;50.904;6.038;2023-05-07T06:36:59;10.07;;;4.53;;
59418;SDS011;45224;50.904;6.038;2023-05-07T06:38:46;8.95;;;4.22;;
59418;SDS011;45224;50.904;6.038;2023-05-07T06:40:16;10.63;;;4.63;;
59418;SDS011;45224;50.904;6.038;2023-05-07T06:41:50;9.82;;;4.90;;
59418;SDS011;45224;50.904;6.038;2023-05-07T06:43:28;7.97;;;4.78;;
59418;SDS011;45224;50.904;6.038;2023-05-07T06:45:15;10.55;;;5.25;;
59418;SDS011;45224;50.904;6.038;2023-05-07T06:46:47;7.43;;;4.70;;
59418;SDS011;45224;50.904;6.038;2023-05-07T06:48:18;13.07;;;5.63;;
59418;SDS011;45224;50.904;6.038;2023-05-07T06:50:02;8.02;;;5.20;;
59418;SDS011;45224;50.904;6.038;2023-05-07T06:51:35;8.32;;;5.40;;
59418;SDS011;45224;50.904;6.038;2023-05-07T06:53:07;10.90;;;4.95;;
59418;SDS011;45224;50.904;6.038;2023-05-07T06:54:38;8.18;;;5.10;;
59418;SDS011;45224;50.904;6.038;2023-05-07T06:56:08;7.50;;;5.10;;
59418;SDS011;45224;50.904;6.038;2023-05-07T06:57:40;8.50;;;4.65;;
59418;SDS011;45224;50.904;6.038;2023-05-07T06:59:11;10.63;;;4.70;;
59418;SDS011;45224;50.904;6.038;2023-05-07T07:00:44;8.07;;;4.55;;
59418;SDS011;45224;50.904;6.038;2023-05-07T07:02:16;8.88;;;4.45;;
59418;SDS011;45224;50.904;6.038;2023-05-07T07:03:47;7.27;;;4.03;;
59418;SDS011;45224;50.904;6.038;2023-05-07T07:05:17;7.35;;;4.85;;
59418;SDS011;45224;50.904;6.038;2023-05-07T07:06:48;7.35;;;3.90;;
59418;SDS011;45224;50.904;6.038;2023-05-07T07:08:18;6.30;;;3.83;;
59418;SDS011;45224;50.904;6.038;2023-05-07T07:09:51;7.07;;;4.03;;
59418;SDS011;45224;50.904;6.038;2023-05-07T07:11:23;7.15;;;4.00;;
59418;SDS011;45224;50.904;6.038;2023-05-07T07:12:53;8.37;;;4.27;;
59418;SDS011;45224;50.904;6.038;2023-05-07T07:14:25;9.07;;;3.85;;
59418;SDS011;45224;50.904;6.038;2023-05-07T07:15:57;6.57;;;4.07;;
59418;SDS011;45224;50.904;6.038;2023-05-07T07:17:28;5.10;;;3.72;;
59418;SDS011;45224;50.904;6.038;2023-05-07T07:18:59;6.93;;;3.70;;
59418;SDS011;45224;50.904;6.038;2023-05-07T07:20:30;8.95;;;3.72;;
59418;SDS011;45224;50.904;6.038;2023-05-07T07:22:00;7.50;;;3.83;;
59418;SDS011;45224;50.904;6.038;2023-05-07T07:23:32;8.85;;;3.85;;
59418;SDS011;45224;50.904;6.038;2023-05-07T07:26:33;6.40;;;3.20;;
59418;SDS011;45224;50.904;6.038;2023-05-07T07:28:05;4.65;;;3.42;;
59418;SDS011;45224;50.904;6.038;2023-05-07T07:29:36;7.00;;;3.20;;
59418;SDS011;45224;50.904;6.038;2023-05-07T07:31:07;8.15;;;3.70;;
59418;SDS011;45224;50.904;6.038;2023-05-07T07:32:37;5.28;;;3.67;;
59418;SDS011;45224;50.904;6.038;2023-05-07T07:34:08;7.05;;;3.70;;
59418;SDS011;45224;50.904;6.038;2023-05-07T07:35:39;8.10;;;4.20;;
59418;SDS011;45224;50.904;6.038;2023-05-07T07:38:41;5.65;;;3.20;;
59418;SDS011;45224;50.904;6.038;2023-05-07T07:40:13;6.30;;;3.15;;
59418;SDS011;45224;50.904;6.038;2023-05-07T07:41:44;5.05;;;2.92;;
59418;SDS011;45224;50.904;6.038;2023-05-07T07:43:16;7.32;;;4.57;;
59418;SDS011;45224;50.904;6.038;2023-05-07T07:44:47;12.18;;;5.32;;
59418;SDS011;45224;50.904;6.038;2023-05-07T07:46:20;9.55;;;4.63;;
59418;SDS011;45224;50.904;6.038;2023-05-07T07:47:50;5.10;;;3.75;;
59418;SDS011;45224;50.904;6.038;2023-05-07T07:49:21;7.63;;;3.53;;
59418;SDS011;45224;50.904;6.038;2023-05-07T07:50:52;8.20;;;3.40;;
59418;SDS011;45224;50.904;6.038;2023-05-07T07:52:23;5.20;;;3.72;;
59418;SDS011;45224;50.904;6.038;2023-05-07T07:53:53;7.63;;;3.20;;
59418;SDS011;45224;50.904;6.038;2023-05-07T07:55:24;7.57;;;3.40;;
59418;SDS011;45224;50.904;6.038;2023-05-07T07:56:58;6.88;;;3.70;;
59418;SDS011;45224;50.904;6.038;2023-05-07T07:58:29;9.57;;;3.50;;
59418;SDS011;45224;50.904;6.038;2023-05-07T07:59:59;7.13;;;3.50;;
59418;SDS011;45224;50.904;6.038;2023-05-07T08:01:31;6.40;;;2.85;;
59418;SDS011;45224;50.904;6.038;2023-05-07T08:03:02;5.50;;;3.13;;
59418;SDS011;45224;50.904;6.038;2023-05-07T08:04:37;7.50;;;3.25;;
59418;SDS011;45224;50.904;6.038;2023-05-07T08:06:09;4.95;;;2.95;;
59418;SDS011;45224;50.904;6.038;2023-05-07T08:07:40;6.93;;;3.10;;
59418;SDS011;45224;50.904;6.038;2023-05-07T08:09:11;5.20;;;3.30;;
59418;SDS011;45224;50.904;6.038;2023-05-07T08:10:43;7.88;;;3.78;;
59418;SDS011;45224;50.904;6.038;2023-05-07T08:12:21;7.55;;;3.22;;
59418;SDS011;45224;50.904;6.038;2023-05-07T08:13:53;8.38;;;3.15;;
59418;SDS011;45224;50.904;6.038;2023-05-07T08:15:25;5.35;;;3.08;;
59418;SDS011;45224;50.904;6.038;2023-05-07T08:16:55;6.93;;;2.83;;
59418;SDS011;45224;50.904;6.038;2023-05-07T08:18:26;5.10;;;2.90;;
59418;SDS011;45224;50.904;6.038;2023-05-07T08:19:59;5.93;;;3.30;;
59418;SDS011;45224;50.904;6.038;2023-05-07T08:21:30;5.33;;;2.97;;
59418;SDS011;45224;50.904;6.038;2023-05-07T08:24:32;6.03;;;2.77;;
59418;SDS011;45224;50.904;6.038;2023-05-07T08:26:02;4.00;;;2.40;;
59418;SDS011;45224;50.904;6.038;2023-05-07T08:27:34;4.15;;;2.15;;
59418;SDS011;45224;50.904;6.038;2023-05-07T08:29:04;6.60;;;2.40;;
59418;SDS011;45224;50.904;6.038;2023-05-07T08:30:35;3.53;;;2.17;;
59418;SDS011;45224;50.904;6.038;2023-05-07T08:32:06;3.00;;;2.15;;
59418;SDS011;45224;50.904;6.038;2023-05-07T08:33:36;5.88;;;2.13;;
59418;SDS011;45224;50.904;6.038;2023-05-07T08:35:08;6.15;;;2.30;;
59418;SDS011;45224;50.904;6.038;2023-05-07T08:36:39;4.78;;;2.30;;
59418;SDS011;45224;50.904;6.038;2023-05-07T08:38:12;4.35;;;1.90;;
59418;SDS011;45224;50.904;6.038;2023-05-07T08:39:43;3.40;;;1.92;;
59418;SDS011;45224;50.904;6.038;2023-05-07T08:41:20;4.47;;;1.75;;
59418;SDS011;45224;50.904;6.038;2023-05-07T08:42:51;3.70;;;1.60;;
59418;SDS011;45224;50.904;6.038;2023-05-07T08:44:23;5.00;;;1.55;;
59418;SDS011;45224;50.904;6.038;2023-05-07T08:45:58;4.35;;;1.58;;
59418;SDS011;45224;50.904;6.038;2023-05-07T08:47:38;9.55;;;1.48;;
59418;SDS011;45224;50.904;6.038;2023-05-07T08:49:17;1.48;;;1.02;;
59418;SDS011;45224;50.904;6.038;2023-05-07T08:52:18;3.38;;;1.40;;
59418;SDS011;45224;50.904;6.038;2023-05-07T08:53:50;2.00;;;1.20;;
59418;SDS011;45224;50.904;6.038;2023-05-07T08:55:26;2.58;;;1.13;;
59418;SDS011;45224;50.904;6.038;2023-05-07T08:56:59;3.30;;;1.25;;
59418;SDS011;45224;50.904;6.038;2023-05-07T09:00:01;3.95;;;1.60;;
59418;SDS011;45224;50.904;6.038;2023-05-07T09:01:33;3.28;;;1.70;;
59418;SDS011;45224;50.904;6.038;2023-05-07T09:03:06;3.42;;;1.55;;
59418;SDS011;45224;50.904;6.038;2023-05-07T09:06:06;2.23;;;1.50;;
59418;SDS011;45224;50.904;6.038;2023-05-07T09:07:37;3.28;;;1.70;;
59418;SDS011;45224;50.904;6.038;2023-05-07T09:09:10;3.75;;;1.60;;
59418;SDS011;45224;50.904;6.038;2023-05-07T09:10:45;12.90;;;1.90;;
59418;SDS011;45224;50.904;6.038;2023-05-07T09:15:18;3.88;;;1.70;;
59418;SDS011;45224;50.904;6.038;2023-05-07T09:18:19;4.30;;;1.20;;
59418;SDS011;45224;50.904;6.038;2023-05-07T09:19:52;2.28;;;1.15;;
59418;SDS011;45224;50.904;6.038;2023-05-07T09:21:24;2.42;;;1.25;;
59418;SDS011;45224;50.904;6.038;2023-05-07T09:22:57;3.33;;;1.30;;
59418;SDS011;45224;50.904;6.038;2023-05-07T09:24:29;4.13;;;1.60;;
59418;SDS011;45224;50.904;6.038;2023-05-07T09:26:04;4.03;;;1.50;;
59418;SDS011;45224;50.904;6.038;2023-05-07T09:27:37;3.50;;;1.50;;
59418;SDS011;45224;50.904;6.038;2023-05-07T09:30:40;2.47;;;1.38;;
59418;SDS011;45224;50.904;6.038;2023-05-07T09:32:13;2.40;;;1.00;;
59418;SDS011;45224;50.904;6.038;2023-05-07T09:33:46;1.25;;;1.00;;
59418;SDS011;45224;50.904;6.038;2023-05-07T09:35:17;4.93;;;1.10;;